createdAt,value
2022-07-29T00:02:52.157Z,100337.47
2022-07-29T00:05:55.415Z,100333.81
2022-07-29T00:09:00.918Z,100336.22
2022-07-29T00:12:04.181Z,100332.19
2022-07-29T00:15:08.106Z,100331.09
2022-07-29T00:18:11.108Z,100329.84
2022-07-29T00:21:14.017Z,100331.34
2022-07-29T00:24:17.426Z,100333.06
2022-07-29T00:27:20.456Z,100321.87
2022-07-29T00:30:23.851Z,100334.16
2022-07-29T00:33:26.552Z,100328.87
2022-07-29T00:36:29.868Z,100328.87
2022-07-29T00:39:32.564Z,100325.09
2022-07-29T00:42:46.844Z,100326.81
2022-07-29T00:45:49.490Z,100327.06
2022-07-29T00:48:52.470Z,100316.22
2022-07-29T00:51:55.483Z,100317.12
2022-07-29T00:54:58.566Z,100319.19
2022-07-29T00:58:01.457Z,100312.63
2022-07-29T01:01:04.458Z,100310.75
2022-07-29T01:04:07.786Z,100317.31
2022-07-29T01:07:11.473Z,100311.66
2022-07-29T01:10:17.167Z,100305.63
2022-07-29T01:13:21.058Z,100315.69
2022-07-29T01:16:33.415Z,100311.94
2022-07-29T01:19:42.513Z,100320.94
2022-07-29T01:22:50.921Z,100318.50
2022-07-29T01:26:30.419Z,100313.16
2022-07-29T01:29:44.846Z,100305.03
2022-07-29T01:32:54.931Z,100303.03
2022-07-29T01:35:58.341Z,100299.44
2022-07-29T01:39:33.390Z,100291.78
2022-07-29T01:42:49.765Z,100294.19
2022-07-29T01:46:01.399Z,100281.63
2022-07-29T01:49:15.101Z,100309.62
2022-07-29T01:52:26.994Z,100302.25
2022-07-29T01:55:35.198Z,100296.84
2022-07-29T01:58:41.737Z,100298.66
2022-07-29T02:01:47.069Z,100296.34
2022-07-29T02:04:51.716Z,100286.78
2022-07-29T02:07:56.747Z,100279.75
2022-07-29T02:11:01.720Z,100287.16
2022-07-29T02:14:05.905Z,100270.41
2022-07-29T02:17:09.235Z,100290.00
2022-07-29T02:20:13.471Z,100291.69
2022-07-29T02:23:21.621Z,100294.28
2022-07-29T02:26:26.963Z,100290.63
2022-07-29T02:29:32.748Z,100290.53
2022-07-29T02:32:41.665Z,100290.31
2022-07-29T02:35:47.824Z,100291.16
2022-07-29T02:38:51.370Z,100280.53
2022-07-29T02:42:04.369Z,100296.53
2022-07-29T02:45:07.789Z,100298.66
2022-07-29T02:48:16.269Z,100291.75
2022-07-29T02:51:41.494Z,100292.78
2022-07-29T02:54:57.006Z,100295.03
2022-07-29T02:58:24.093Z,100296.34
2022-07-29T03:01:32.700Z,100300.06
2022-07-29T03:04:36.868Z,100290.22
2022-07-29T03:07:42.225Z,100298.06
2022-07-29T03:10:48.159Z,100302.00
2022-07-29T03:13:51.968Z,100292.84
2022-07-29T03:16:54.859Z,100302.06
2022-07-29T03:19:58.873Z,100301.09
2022-07-29T03:23:02.518Z,100301.31
2022-07-29T03:26:05.482Z,100291.28
2022-07-29T03:29:08.096Z,100296.16
2022-07-29T03:32:16.496Z,100295.53
2022-07-29T03:35:26.752Z,100299.19
2022-07-29T03:38:32.202Z,100295.75
2022-07-29T03:41:35.892Z,100290.41
2022-07-29T03:44:42.568Z,100288.37
2022-07-29T03:48:01.253Z,100293.97
2022-07-29T03:51:04.544Z,100289.84
2022-07-29T03:54:10.080Z,100292.41
2022-07-29T03:57:14.156Z,100294.41
2022-07-29T04:00:17.222Z,100297.66
2022-07-29T04:03:20.589Z,100306.56
2022-07-29T04:06:23.245Z,100307.91
2022-07-29T04:09:26.542Z,100304.75
2022-07-29T04:12:29.185Z,100312.22
2022-07-29T04:15:32.161Z,100307.19
2022-07-29T04:18:35.096Z,100303.97
2022-07-29T04:21:39.613Z,100318.59
2022-07-29T04:24:44.411Z,100305.34
2022-07-29T04:28:02.782Z,100307.38
2022-07-29T04:31:05.441Z,100305.91
2022-07-29T04:34:08.785Z,100310.25
2022-07-29T04:37:11.672Z,100312.72
2022-07-29T04:40:15.243Z,100314.03
2022-07-29T04:43:22.439Z,100317.09
2022-07-29T04:46:26.382Z,100317.38
2022-07-29T04:49:29.092Z,100316.50
2022-07-29T04:52:32.045Z,100319.81
2022-07-29T04:55:35.128Z,100321.16
2022-07-29T04:58:41.995Z,100324.47
2022-07-29T05:01:44.692Z,100316.84
2022-07-29T05:04:47.655Z,100321.91
2022-07-29T05:07:50.303Z,100327.88
2022-07-29T05:10:53.288Z,100336.84
2022-07-29T05:13:55.987Z,100336.75
2022-07-29T05:16:59.059Z,100340.53
2022-07-29T05:20:02.927Z,100336.75
2022-07-29T05:23:06.269Z,100348.09
2022-07-29T05:26:09.188Z,100347.62
2022-07-29T05:29:44.843Z,100342.25
2022-07-29T05:32:35.205Z,100349.34
2022-07-29T05:35:38.413Z,100347.56
2022-07-29T05:38:41.260Z,100351.28
2022-07-29T05:41:47.667Z,100349.53
2022-07-29T05:44:53.747Z,100351.84
2022-07-29T05:47:56.875Z,100364.69
2022-07-29T05:50:59.750Z,100353.44
2022-07-29T05:54:03.425Z,100354.06
2022-07-29T05:57:06.561Z,100361.50
2022-07-29T06:00:10.489Z,100360.44
2022-07-29T06:03:15.168Z,100354.03
2022-07-29T06:06:18.357Z,100362.72
2022-07-29T06:09:21.180Z,100364.22
2022-07-29T06:12:24.546Z,100362.31
2022-07-29T06:15:27.513Z,100365.28
2022-07-29T06:18:30.830Z,100372.87
2022-07-29T06:21:34.686Z,100371.28
2022-07-29T06:24:44.908Z,100360.28
2022-07-29T06:27:47.712Z,100367.84
2022-07-29T06:30:50.879Z,100366.94
2022-07-29T06:33:54.741Z,100370.47
2022-07-29T06:36:57.913Z,100381.84
2022-07-29T06:40:21.143Z,100378.81
2022-07-29T06:43:24.345Z,100373.69
2022-07-29T06:46:30.053Z,100378.59
2022-07-29T06:49:33.307Z,100363.69
2022-07-29T06:52:36.122Z,100374.03
2022-07-29T06:55:39.217Z,100373.00
2022-07-29T06:58:42.233Z,100380.63
2022-07-29T07:01:45.585Z,100381.53
2022-07-29T07:04:48.500Z,100377.00
2022-07-29T07:07:53.161Z,100377.44
2022-07-29T07:10:57.345Z,100372.84
2022-07-29T07:14:03.586Z,100375.56
2022-07-29T07:17:08.177Z,100372.28
2022-07-29T07:20:12.335Z,100369.16
2022-07-29T07:23:15.942Z,100369.91
2022-07-29T07:26:19.103Z,100374.16
2022-07-29T07:29:22.060Z,100380.03
2022-07-29T07:32:25.257Z,100378.53
2022-07-29T07:35:28.884Z,100388.00
2022-07-29T07:38:31.984Z,100379.25
2022-07-29T07:41:34.866Z,100383.59
2022-07-29T07:44:57.235Z,100385.53
2022-07-29T07:48:01.255Z,100379.87
2022-07-29T07:51:04.799Z,100377.44
2022-07-29T07:54:07.591Z,100385.38
2022-07-29T07:57:10.894Z,100381.78
2022-07-29T08:00:16.223Z,100386.88
2022-07-29T08:03:19.411Z,100379.56
2022-07-29T08:06:22.273Z,100385.09
2022-07-29T08:09:29.614Z,100384.56
2022-07-29T08:12:32.964Z,100381.78
2022-07-29T08:15:36.507Z,100376.09
2022-07-29T08:18:41.417Z,100373.75
2022-07-29T08:21:44.537Z,100388.25
2022-07-29T08:24:53.499Z,100388.75
2022-07-29T08:27:58.760Z,100385.81
2022-07-29T08:31:01.702Z,100386.47
2022-07-29T08:34:05.863Z,100392.31
2022-07-29T08:37:08.729Z,100401.62
2022-07-29T08:40:12.553Z,100383.91
2022-07-29T08:43:15.573Z,100390.94
2022-07-29T08:46:19.831Z,100390.44
2022-07-29T08:49:22.693Z,100387.69
2022-07-29T08:52:28.257Z,100384.78
2022-07-29T08:55:31.206Z,100390.53
2022-07-29T08:58:36.860Z,100393.59
2022-07-29T09:01:45.240Z,100391.78
2022-07-29T09:04:48.981Z,100386.97
2022-07-29T09:07:52.476Z,100371.25
2022-07-29T09:10:59.481Z,100384.06
2022-07-29T09:14:02.810Z,100381.19
2022-07-29T09:17:06.844Z,100370.22
2022-07-29T09:20:17.595Z,100372.22
2022-07-29T09:23:23.958Z,100368.69
2022-07-29T09:26:32.039Z,100374.75
2022-07-29T09:29:36.395Z,100362.41
2022-07-29T09:33:02.369Z,100353.47
2022-07-29T09:36:08.452Z,100366.63
2022-07-29T09:39:11.911Z,100360.16
2022-07-29T09:42:30.153Z,100345.87
2022-07-29T09:45:35.295Z,100349.53
2022-07-29T09:48:38.463Z,100352.81
2022-07-29T09:51:42.428Z,100341.78
2022-07-29T09:54:46.144Z,100343.84
2022-07-29T09:57:48.945Z,100342.53
2022-07-29T10:00:54.636Z,100349.78
2022-07-29T10:03:58.005Z,100339.88
2022-07-29T10:07:05.177Z,100332.81
2022-07-29T10:10:09.318Z,100325.88
2022-07-29T10:13:16.198Z,100321.66
2022-07-29T10:16:19.932Z,100318.84
2022-07-29T10:19:23.348Z,100323.66
2022-07-29T10:22:51.846Z,100324.78
2022-07-29T10:25:49.405Z,100319.31
2022-07-29T10:28:52.785Z,100312.94
2022-07-29T10:32:14.152Z,100293.12
2022-07-29T10:35:38.803Z,100310.19
2022-07-29T10:38:53.864Z,100301.03
2022-07-29T10:42:07.501Z,100297.47
2022-07-29T10:45:13.217Z,100292.69
2022-07-29T10:48:18.069Z,100292.53
2022-07-29T10:51:21.978Z,100290.41
2022-07-29T10:54:42.354Z,100296.72
2022-07-29T10:58:18.096Z,100290.88
2022-07-29T11:01:37.534Z,100287.06
2022-07-29T11:04:44.935Z,100278.31
2022-07-29T11:08:13.567Z,100278.03
2022-07-29T11:11:29.836Z,100285.47
2022-07-29T11:14:54.944Z,100266.03
2022-07-29T11:18:00.390Z,100257.91
2022-07-29T11:21:03.621Z,100261.72
2022-07-29T11:24:18.646Z,100259.31
2022-07-29T11:27:40.566Z,100262.59
2022-07-29T11:30:56.332Z,100256.22
2022-07-29T11:34:20.949Z,100248.97
2022-07-29T11:37:27.994Z,100241.47
2022-07-29T11:40:35.030Z,100250.63
2022-07-29T11:43:58.501Z,100255.44
2022-07-29T11:47:02.955Z,100249.22
2022-07-29T11:50:14.194Z,100253.56
2022-07-29T11:53:17.399Z,100244.81
2022-07-29T11:56:25.601Z,100244.66
2022-07-29T11:59:33.442Z,100236.50
2022-07-29T12:02:48.136Z,100237.00
2022-07-29T12:05:52.996Z,100234.28
2022-07-29T12:08:56.236Z,100229.81
2022-07-29T12:12:05.285Z,100214.69
2022-07-29T12:15:22.347Z,100219.44
2022-07-29T12:18:26.025Z,100218.81
2022-07-29T12:21:30.265Z,100208.31
2022-07-29T12:24:45.266Z,100206.25
2022-07-29T12:27:48.549Z,100199.03
2022-07-29T12:30:52.975Z,100212.00
2022-07-29T12:33:55.924Z,100205.19
2022-07-29T12:37:02.252Z,100200.09
2022-07-29T12:40:07.221Z,100197.25
2022-07-29T12:43:11.912Z,100187.16
2022-07-29T12:46:16.076Z,100185.63
2022-07-29T12:49:23.856Z,100169.50
2022-07-29T12:52:32.006Z,100178.47
2022-07-29T12:55:49.974Z,100178.91
2022-07-29T12:58:52.798Z,100175.84
2022-07-29T13:01:56.230Z,100170.16
2022-07-29T13:05:00.921Z,100167.50
2022-07-29T13:08:20.171Z,100157.34
2022-07-29T13:11:53.447Z,100143.16
2022-07-29T13:14:56.645Z,100154.50
2022-07-29T13:18:00.534Z,100151.50
2022-07-29T13:21:15.023Z,100130.12
2022-07-29T13:24:19.959Z,100139.88
2022-07-29T13:27:25.510Z,100142.06
2022-07-29T13:30:28.432Z,100132.53
2022-07-29T13:33:31.675Z,100130.03
2022-07-29T13:36:36.709Z,100127.41
2022-07-29T13:39:43.210Z,100126.84
2022-07-29T13:42:55.881Z,100117.91
2022-07-29T13:45:59.163Z,100117.81
2022-07-29T13:49:02.103Z,100111.53
2022-07-29T13:52:08.480Z,100116.34
2022-07-29T13:55:11.412Z,100120.44
2022-07-29T13:58:14.591Z,100105.72
2022-07-29T14:01:17.442Z,100101.66
2022-07-29T14:04:20.689Z,100102.25
2022-07-29T14:07:24.522Z,100090.03
2022-07-29T14:10:27.622Z,100099.56
2022-07-29T14:13:30.493Z,100097.13
2022-07-29T14:16:38.107Z,100096.06
2022-07-29T14:19:45.044Z,100097.22
2022-07-29T14:22:48.272Z,100089.78
2022-07-29T14:25:51.193Z,100099.03
2022-07-29T14:28:54.453Z,100096.72
2022-07-29T14:31:57.640Z,100099.53
2022-07-29T14:35:01.108Z,100099.06
2022-07-29T14:38:04.058Z,100088.50
2022-07-29T14:41:08.488Z,100079.62
2022-07-29T14:44:11.347Z,100080.09
2022-07-29T14:47:14.587Z,100075.44
2022-07-29T14:50:18.171Z,100071.06
2022-07-29T14:53:33.882Z,100073.22
2022-07-29T14:56:37.700Z,100068.16
2022-07-29T14:59:49.706Z,100062.69
2022-07-29T15:03:01.822Z,100055.56
2022-07-29T15:06:06.257Z,100060.75
2022-07-29T15:09:09.049Z,100059.16
2022-07-29T15:12:12.766Z,100050.69
2022-07-29T15:15:15.685Z,100053.34
2022-07-29T15:18:25.676Z,100052.12
2022-07-29T15:21:28.778Z,100045.31
2022-07-29T15:24:32.351Z,100036.91
2022-07-29T15:27:35.367Z,100045.09
2022-07-29T15:30:41.891Z,100042.78
2022-07-29T15:33:44.681Z,100035.59
2022-07-29T15:36:52.859Z,100023.84
2022-07-29T15:40:00.013Z,100027.22
2022-07-29T15:43:06.868Z,100019.50
2022-07-29T15:46:28.620Z,100027.66
2022-07-29T15:49:47.718Z,100026.13
2022-07-29T15:52:52.212Z,100023.03
2022-07-29T15:55:55.627Z,100025.03
2022-07-29T15:58:58.862Z,100021.03
2022-07-29T16:02:02.232Z,100022.38
2022-07-29T16:05:05.878Z,100021.50
2022-07-29T16:08:12.766Z,100019.94
2022-07-29T16:11:16.172Z,100019.94
2022-07-29T16:14:19.190Z,100023.75
2022-07-29T16:17:22.441Z,100029.72
2022-07-29T16:20:25.571Z,100031.69
2022-07-29T16:23:29.731Z,100021.13
2022-07-29T16:26:33.540Z,100027.09
2022-07-29T16:29:37.423Z,100023.44
2022-07-29T16:32:40.472Z,100025.62
2022-07-29T16:35:43.579Z,100024.28
2022-07-29T16:38:47.018Z,100032.63
2022-07-29T16:41:50.766Z,100031.09
2022-07-29T16:44:53.635Z,100029.78
2022-07-29T16:48:00.367Z,100033.28
2022-07-29T16:51:05.085Z,100041.63
2022-07-29T16:54:10.748Z,100043.13
2022-07-29T16:57:13.787Z,100051.19
2022-07-29T17:00:19.659Z,100037.13
2022-07-29T17:03:22.700Z,100030.31
2022-07-29T17:06:25.998Z,100041.72
2022-07-29T17:09:28.843Z,100041.16
2022-07-29T17:12:32.704Z,100043.47
2022-07-29T17:15:35.785Z,100033.06
2022-07-29T17:18:39.686Z,100045.50
2022-07-29T17:21:46.708Z,100061.22
2022-07-29T17:24:52.653Z,100054.06
2022-07-29T17:28:00.528Z,100064.22
2022-07-29T17:31:04.100Z,100068.69
2022-07-29T17:34:07.564Z,100073.94
2022-07-29T17:37:12.053Z,100072.88
2022-07-29T17:40:15.040Z,100066.66
2022-07-29T17:43:18.145Z,100075.63
2022-07-29T17:46:22.717Z,100080.00
2022-07-29T17:49:27.004Z,100080.78
2022-07-29T17:52:29.909Z,100082.78
2022-07-29T17:55:33.317Z,100093.72
2022-07-29T17:58:37.838Z,100088.75
2022-07-29T18:01:41.569Z,100086.19
2022-07-29T18:04:44.802Z,100100.16
2022-07-29T18:07:52.711Z,100103.91
2022-07-29T18:10:56.095Z,100097.31
2022-07-29T18:13:59.023Z,100101.50
2022-07-29T18:17:05.557Z,100100.47
2022-07-29T18:20:09.072Z,100103.53
2022-07-29T18:23:13.372Z,100113.12
2022-07-29T18:26:16.620Z,100104.41
2022-07-29T18:29:19.834Z,100111.09
2022-07-29T18:32:28.878Z,100094.91
2022-07-29T18:35:32.776Z,100117.66
2022-07-29T18:38:35.792Z,100109.09
2022-07-29T18:41:50.426Z,100105.50
2022-07-29T18:44:54.863Z,100105.94
2022-07-29T18:47:58.186Z,100114.78
2022-07-29T18:51:01.087Z,100123.72
2022-07-29T18:54:05.647Z,100125.13
2022-07-29T18:57:54.211Z,100140.19
2022-07-29T19:00:32.240Z,100143.28
2022-07-29T19:03:35.293Z,100137.03
2022-07-29T19:06:40.784Z,100156.75
2022-07-29T19:09:49.467Z,100146.69
2022-07-29T19:12:53.056Z,100166.59
2022-07-29T19:15:55.897Z,100168.91
2022-07-29T19:19:01.053Z,100163.22
2022-07-29T19:22:05.060Z,100167.88
2022-07-29T19:25:09.400Z,100172.72
2022-07-29T19:28:12.347Z,100164.28
2022-07-29T19:31:15.521Z,100161.25
2022-07-29T19:34:18.644Z,100168.22
2022-07-29T19:37:21.811Z,100153.78
2022-07-29T19:40:28.545Z,100175.59
2022-07-29T19:43:50.452Z,100173.22
2022-07-29T19:46:54.863Z,100174.25
2022-07-29T19:49:58.208Z,100171.94
2022-07-29T19:53:01.364Z,100172.81
2022-07-29T19:56:04.849Z,100164.03
2022-07-29T19:59:07.911Z,100167.50
2022-07-29T20:02:12.398Z,100163.06
2022-07-29T20:05:15.953Z,100161.50
2022-07-29T20:08:19.425Z,100161.50
2022-07-29T20:11:22.592Z,100154.44
2022-07-29T20:14:25.432Z,100156.28
2022-07-29T20:17:29.058Z,100151.97
2022-07-29T20:20:32.205Z,100147.00
2022-07-29T20:23:35.427Z,100151.47
2022-07-29T20:26:38.602Z,100146.53
2022-07-29T20:29:41.842Z,100147.22
2022-07-29T20:32:45.308Z,100141.47
2022-07-29T20:35:48.449Z,100137.88
2022-07-29T20:38:51.459Z,100141.75
2022-07-29T20:41:54.600Z,100144.47
2022-07-29T20:44:58.181Z,100139.91
2022-07-29T20:48:01.505Z,100131.16
2022-07-29T20:51:04.512Z,100130.50
2022-07-29T20:54:08.716Z,100126.28
2022-07-29T20:57:11.816Z,100122.06
2022-07-29T21:00:15.328Z,100125.41
2022-07-29T21:03:18.475Z,100115.69
2022-07-29T21:06:21.955Z,100114.72
2022-07-29T21:09:24.819Z,100115.03
2022-07-29T21:12:30.168Z,100116.22
2022-07-29T21:15:33.211Z,100130.12
2022-07-29T21:18:37.700Z,100119.13
2022-07-29T21:21:40.528Z,100129.31
2022-07-29T21:24:43.648Z,100132.31
2022-07-29T21:28:05.176Z,100133.06
2022-07-29T21:31:09.601Z,100140.22
2022-07-29T21:34:12.396Z,100134.28
2022-07-29T21:37:15.584Z,100133.53
2022-07-29T21:40:19.309Z,100129.84
2022-07-29T21:43:24.820Z,100133.91
2022-07-29T21:46:27.704Z,100134.38
2022-07-29T21:49:30.893Z,100136.88
2022-07-29T21:52:33.721Z,100133.00
2022-07-29T21:55:40.420Z,100127.25
2022-07-29T21:58:43.494Z,100129.13
2022-07-29T22:01:46.755Z,100132.41
2022-07-29T22:04:50.746Z,100143.62
2022-07-29T22:07:56.096Z,100140.81
2022-07-29T22:11:00.186Z,100142.09
2022-07-29T22:14:04.559Z,100137.72
2022-07-29T22:17:07.777Z,100140.69
2022-07-29T22:20:10.946Z,100136.19
2022-07-29T22:23:14.098Z,100130.59
2022-07-29T22:26:16.848Z,100133.69
2022-07-29T22:29:20.201Z,100129.81
2022-07-29T22:32:23.076Z,100117.19
2022-07-29T22:35:26.242Z,100122.63
2022-07-29T22:38:29.243Z,100119.69
2022-07-29T22:41:32.449Z,100113.78
2022-07-29T22:44:35.297Z,100107.22
2022-07-29T22:47:48.179Z,100107.84
2022-07-29T22:50:51.735Z,100114.06
2022-07-29T22:53:54.891Z,100114.97
2022-07-29T22:56:57.787Z,100100.22
2022-07-29T23:00:02.524Z,100108.16
2022-07-29T23:03:06.304Z,100103.19
2022-07-29T23:06:09.507Z,100101.44
2022-07-29T23:09:12.316Z,100098.47
2022-07-29T23:12:15.469Z,100104.69
2022-07-29T23:15:18.443Z,100094.09
2022-07-29T23:18:22.762Z,100101.56
2022-07-29T23:21:26.344Z,100102.63
2022-07-29T23:24:29.568Z,100096.69
2022-07-29T23:27:32.410Z,100096.81
2022-07-29T23:30:36.148Z,100078.38
2022-07-29T23:33:39.473Z,100097.00
2022-07-29T23:36:42.680Z,100088.03
2022-07-29T23:39:45.478Z,100098.66
2022-07-29T23:42:48.723Z,100098.00
2022-07-29T23:45:51.538Z,100097.03
2022-07-29T23:48:56.932Z,100096.22
2022-07-29T23:51:59.831Z,100086.97
2022-07-29T23:55:38.850Z,100092.94
2022-07-29T23:58:25.999Z,100085.38
